Time;durP1;ratioP1;P1;durP2;ratioP2;P2;SDS_P1;SDS_P2;PMS_P1;PMS_P2;Temp;Humidity;BMP_temperature;BMP_pressure;BME280_temperature;BME280_humidity;BME280_pressure;Samples;Min_cycle;Max_cycle;Signal;HPM_P1;HPM_P2
2021/12/02 00:01:31;;;;;;;1.43;1.33;;;;;;;19.83;52.34;95574.31;4971476;28;20219;-83
2021/12/02 00:04:01;;;;;;;1.30;1.20;;;;;;;19.45;52.38;95528.22;4937647;28;20580;-84
2021/12/02 00:06:27;;;;;;;1.97;1.30;;;;;;;20.38;52.35;95663.00;4938367;28;20224;-83
2021/12/02 00:08:54;;;;;;;1.73;1.40;;;;;;;19.46;52.26;95519.78;4968051;28;20835;-82
2021/12/02 00:11:21;;;;;;;1.40;1.30;;;;;;;20.40;52.40;95663.03;4971075;28;20243;-83
2021/12/02 00:21:23;;;;;;;1.30;1.20;;;;;;;19.89;52.26;95564.13;4970106;28;20247;-83
2021/12/02 00:24:03;;;;;;;1.27;1.17;;;;;;;20.41;52.32;95647.72;4957779;28;20282;-83
2021/12/02 00:26:33;;;;;;;1.13;1.03;;;;;;;20.41;52.26;95647.72;4970913;28;20234;-83
2021/12/02 00:29:01;;;;;;;2.50;1.23;;;;;;;20.42;52.29;95641.75;4955341;28;20200;-83
2021/12/02 00:31:31;;;;;;;2.73;1.40;;;;;;;18.23;52.21;95273.81;4971338;28;20673;-83
2021/12/02 00:34:00;;;;;;;1.50;1.30;;;;;;;19.16;52.16;95430.41;4971865;28;20237;-83
2021/12/02 00:36:30;;;;;;;1.10;1.03;;;;;;;17.17;52.25;95097.75;4974122;28;20235;-82
2021/12/02 00:39:03;;;;;;;2.10;1.40;;;;;;;16.80;52.00;95031.50;4972021;28;20203;-80
2021/12/02 00:41:33;;;;;;;1.73;1.40;;;;;;;17.78;52.35;95205.72;4972539;28;20218;-83
2021/12/02 00:44:06;;;;;;;1.63;1.40;;;;;;;16.00;52.17;94904.91;4971832;28;20584;-83
2021/12/02 00:46:33;;;;;;;1.83;1.50;;;;;;;20.44;52.29;95664.72;4958073;28;20220;-83
2021/12/02 00:49:04;;;;;;;1.90;1.50;;;;;;;16.28;52.12;94979.47;4970950;28;20692;-81
2021/12/02 00:51:40;;;;;;;1.77;1.20;;;;;;;18.05;51.78;95256.72;4946568;28;20600;-83
2021/12/02 00:54:09;;;;;;;4.00;1.40;;;;;;;19.05;52.38;95438.84;4971241;28;20196;-83
2021/12/02 00:56:45;;;;;;;1.27;1.17;;;;;;;13.14;52.53;94477.97;4975095;28;20557;-83
2021/12/02 00:59:11;;;;;;;1.30;1.20;;;;;;;11.75;52.02;94203.28;4962702;28;20239;-83
2021/12/02 01:01:43;;;;;;;1.47;1.33;;;;;;;19.29;52.22;95497.56;4971867;28;20250;-83
2021/12/02 01:04:13;;;;;;;1.53;1.30;;;;;;;19.34;52.29;95501.88;4986510;28;20291;-84
2021/12/02 01:06:40;;;;;;;1.57;1.30;;;;;;;19.75;52.45;95581.91;4951508;28;20302;-83
2021/12/02 01:09:10;;;;;;;1.23;1.10;;;;;;;20.33;52.39;95685.09;4971107;28;20212;-83
2021/12/02 01:11:39;;;;;;;1.40;1.27;;;;;;;15.26;52.29;94831.56;4971522;28;20188;-84
2021/12/02 01:14:07;;;;;;;1.30;1.20;;;;;;;11.35;51.99;94284.75;4970295;28;20192;-83
2021/12/02 01:16:34;;;;;;;1.30;1.20;;;;;;;19.48;52.64;95550.34;4970884;28;20231;-83
2021/12/02 01:19:02;;;;;;;1.97;1.30;;;;;;;19.62;52.68;95576.72;4969949;28;20676;-83
2021/12/02 01:21:29;;;;;;;1.20;1.10;;;;;;;20.32;52.58;95710.59;4970441;28;20215;-83
2021/12/02 01:24:00;;;;;;;1.60;1.30;;;;;;;20.34;52.55;95721.66;4968897;28;20200;-82
2021/12/02 01:26:28;;;;;;;1.20;1.10;;;;;;;19.74;52.55;95628.63;4985160;28;20751;-83
2021/12/02 01:28:54;;;;;;;1.13;1.03;;;;;;;20.33;52.41;95732.69;4954396;28;20291;-83
2021/12/02 01:31:21;;;;;;;1.40;1.30;;;;;;;20.33;52.72;95732.69;4970550;28;20199;-83
2021/12/02 01:33:48;;;;;;;1.23;1.10;;;;;;;19.50;52.61;95587.72;4970285;28;20200;-83
2021/12/02 01:36:15;;;;;;;1.57;1.00;;;;;;;19.50;52.59;95590.25;4986129;28;20239;-83
2021/12/02 01:39:15;;;;;;;1.40;1.30;;;;;;;20.34;52.56;95732.69;4986623;28;20200;-84
2021/12/02 01:41:51;;;;;;;1.30;1.20;;;;;;;20.35;52.72;95731.88;4972184;28;20266;-83
2021/12/02 01:44:20;;;;;;;1.37;1.27;;;;;;;19.78;52.74;95647.34;4970097;28;20613;-83
2021/12/02 01:46:48;;;;;;;1.30;1.20;;;;;;;19.51;52.75;95602.13;4985874;28;20211;-80
2021/12/02 01:49:21;;;;;;;1.20;1.10;;;;;;;18.26;52.53;95383.97;4970074;28;20250;-84
2021/12/02 01:52:40;;;;;;;1.10;1.10;;;;;;;20.35;52.58;95736.13;4970711;28;20198;-83
2021/12/02 01:55:11;;;;;;;1.30;1.20;;;;;;;20.04;52.73;95685.75;4970977;28;20669;-83
2021/12/02 01:57:46;;;;;;;1.30;1.20;;;;;;;20.35;52.78;95729.31;4996398;28;20254;-83
2021/12/02 02:00:15;;;;;;;1.30;1.20;;;;;;;16.32;52.61;95072.44;4983513;28;20199;-83
2021/12/02 02:02:42;;;;;;;1.20;1.10;;;;;;;18.70;52.38;95456.41;4968382;28;20211;-83
2021/12/02 02:05:13;;;;;;;1.20;1.10;;;;;;;20.35;52.88;95738.66;4971897;28;20212;-83
2021/12/02 02:08:02;;;;;;;1.20;1.10;;;;;;;20.35;52.63;95736.97;4962512;28;20219;-83
2021/12/02 02:10:34;;;;;;;1.20;1.10;;;;;;;20.11;52.61;95702.78;4974190;28;20292;-83
2021/12/02 02:13:06;;;;;;;1.20;1.10;;;;;;;20.05;52.46;95687.44;4989517;28;20239;-83
2021/12/02 02:15:36;;;;;;;1.37;1.27;;;;;;;18.30;52.58;95421.31;4982238;28;20219;-83
2021/12/02 02:18:17;;;;;;;1.30;1.20;;;;;;;14.28;52.08;94775.59;4960065;28;20204;-84
2021/12/02 02:20:54;;;;;;;1.20;1.10;;;;;;;18.19;52.65;95367.84;4971282;28;20572;-83
2021/12/02 02:23:24;;;;;;;1.30;1.20;;;;;;;11.41;52.14;94289.88;4954594;28;20239;-84
2021/12/02 02:25:53;;;;;;;2.70;1.03;;;;;;;19.75;52.69;95637.13;4973090;28;20274;-82
2021/12/02 02:28:19;;;;;;;1.30;1.20;;;;;;;10.48;52.26;94099.94;4972750;28;20206;-83
2021/12/02 02:30:46;;;;;;;1.40;1.30;;;;;;;19.75;52.59;95632.88;4974164;28;20204;-82
2021/12/02 02:33:17;;;;;;;1.20;1.10;;;;;;;16.95;52.49;95201.56;4974711;28;20211;-83
2021/12/02 02:35:45;;;;;;;1.23;1.13;;;;;;;20.36;52.78;95738.66;4987105;28;20240;-83
2021/12/02 02:38:14;;;;;;;1.40;1.30;;;;;;;20.37;52.70;95735.25;4974316;28;20231;-82
2021/12/02 02:40:44;;;;;;;1.33;1.20;;;;;;;19.92;52.71;95651.69;4976934;28;20636;-83
2021/12/02 02:43:11;;;;;;;1.23;1.13;;;;;;;20.07;52.52;95689.16;4972030;28;20223;-83
2021/12/02 02:45:38;;;;;;;1.30;1.10;;;;;;;20.36;52.77;95723.38;4972872;28;20224;-83
2021/12/02 02:48:05;;;;;;;1.10;1.10;;;;;;;18.91;52.57;95521.88;4971019;28;20200;-83
2021/12/02 02:50:32;;;;;;;1.33;1.20;;;;;;;20.36;52.80;95728.47;4971086;28;20677;-83
2021/12/02 02:53:21;;;;;;;1.10;1.10;;;;;;;19.74;52.77;95620.13;4970504;28;20631;-83
2021/12/02 03:08:53;;;;;;;1.03;1.03;;;;;;;19.44;52.67;95590.22;4953944;28;20208;-82
2021/12/02 03:11:20;;;;;;;1.13;1.10;;;;;;;16.94;52.81;95248.06;4972776;28;20199;-83
2021/12/02 03:13:48;;;;;;;1.10;1.00;;;;;;;20.27;52.89;95738.63;4956519;28;20206;-83
2021/12/02 03:19:00;;;;;;;1.80;1.10;;;;;;;20.19;53.04;95730.06;4971909;28;20200;-85
2021/12/02 03:21:28;;;;;;;1.10;1.10;;;;;;;17.28;52.80;95233.19;4967102;28;20263;-81
2021/12/02 03:23:57;;;;;;;1.20;1.10;;;;;;;18.78;53.05;95487.88;4952040;28;20200;-83
2021/12/02 03:26:24;;;;;;;1.20;1.10;;;;;;;16.49;52.98;95124.16;4972646;28;20763;-83
2021/12/02 03:28:54;;;;;;;1.40;1.30;;;;;;;20.26;53.07;95734.38;4953328;29;20323;-83
2021/12/02 03:31:22;;;;;;;1.00;1.00;;;;;;;20.06;52.87;95702.75;4961210;28;20255;-83
2021/12/02 03:33:49;;;;;;;1.00;1.00;;;;;;;18.31;53.05;95433.16;4972930;28;20203;-83
2021/12/02 03:36:20;;;;;;;1.00;1.00;;;;;;;19.12;53.17;95573.81;4971823;28;20398;-83
2021/12/02 03:38:47;;;;;;;1.10;1.00;;;;;;;17.16;52.80;95205.16;4972917;28;20222;-82
2021/12/02 03:41:14;;;;;;;1.00;0.90;;;;;;;14.92;52.12;94816.84;4987682;28;20728;-83
2021/12/02 03:43:42;;;;;;;1.50;1.40;;;;;;;17.50;52.90;95257.97;4971962;28;20274;-83
2021/12/02 03:46:10;;;;;;;1.33;1.10;;;;;;;18.71;52.72;95460.66;4971478;28;20216;-81
2021/12/02 03:48:44;;;;;;;1.27;1.17;;;;;;;14.35;52.84;94749.59;4972336;28;20732;-83
2021/12/02 03:51:11;;;;;;;1.13;1.03;;;;;;;17.48;52.66;95246.97;4949949;29;20262;-82
2021/12/02 03:53:38;;;;;;;1.37;1.27;;;;;;;17.40;52.72;95246.00;4955455;28;20696;-81
2021/12/02 03:56:14;;;;;;;1.20;1.10;;;;;;;15.22;52.69;94941.97;4952849;28;20250;-83
2021/12/02 03:58:42;;;;;;;1.07;1.07;;;;;;;18.89;52.76;95486.22;4977846;28;20221;-83
2021/12/02 04:01:08;;;;;;;1.00;1.00;;;;;;;20.32;52.93;95733.53;4956032;28;20203;-83
2021/12/02 04:03:35;;;;;;;1.40;1.10;;;;;;;20.31;52.81;95732.69;4970938;28;20274;-80
2021/12/02 04:06:02;;;;;;;1.20;1.10;;;;;;;20.31;52.77;95737.78;4970888;28;20623;-83
2021/12/02 04:11:40;;;;;;;1.43;1.20;;;;;;;15.06;52.66;94838.91;4982443;28;20239;-83
2021/12/02 04:14:16;;;;;;;1.00;1.00;;;;;;;19.58;52.90;95603.03;4984478;28;20576;-83
2021/12/02 04:17:29;;;;;;;1.00;1.00;;;;;;;20.32;52.78;95731.84;4971434;28;20223;-83
2021/12/02 04:19:41;;;;;;;1.10;1.00;;;;;;;19.18;52.69;95545.84;4971682;28;20199;-83
2021/12/02 04:22:10;;;;;;;0.90;0.90;;;;;;;18.76;52.60;95478.50;4985105;28;20235;-83
2021/12/02 04:24:37;;;;;;;1.60;0.93;;;;;;;19.19;52.74;95569.63;4963008;28;20196;-83
2021/12/02 04:27:10;;;;;;;1.10;1.00;;;;;;;19.14;53.13;95549.22;4967815;28;20228;-83
2021/12/02 04:29:36;;;;;;;1.13;1.13;;;;;;;20.23;52.84;95746.25;4972108;28;20208;-83
2021/12/02 04:32:06;;;;;;;1.00;1.00;;;;;;;14.82;52.63;94853.78;4969278;28;20200;-84
2021/12/02 04:34:33;;;;;;;0.90;0.90;;;;;;;20.23;52.74;95744.56;4970838;28;20282;-83
2021/12/02 04:37:00;;;;;;;1.20;1.10;;;;;;;19.62;53.16;95661.69;4995598;23;20223;-82
2021/12/02 04:39:26;;;;;;;0.90;0.90;;;;;;;19.90;52.80;95709.44;4949000;28;20286;-83
2021/12/02 04:41:53;;;;;;;1.20;1.10;;;;;;;19.72;52.25;95672.81;4962998;28;20214;-83
2021/12/02 04:44:20;;;;;;;1.10;1.10;;;;;;;20.16;52.88;95745.34;4970887;28;20199;-83
2021/12/02 04:46:46;;;;;;;1.30;1.20;;;;;;;20.03;52.85;95720.59;4971041;28;20219;-83
2021/12/02 04:49:13;;;;;;;1.33;1.03;;;;;;;19.90;52.98;95690.75;4954670;28;20204;-83
2021/12/02 04:51:40;;;;;;;1.03;1.00;;;;;;;20.10;53.05;95722.31;4968575;28;20639;-83
2021/12/02 04:54:06;;;;;;;0.90;0.90;;;;;;;19.95;53.07;95696.72;4940796;29;20236;-83
2021/12/02 04:56:33;;;;;;;0.90;0.90;;;;;;;20.24;52.82;95747.94;4943805;28;20283;-84
2021/12/02 04:58:59;;;;;;;1.00;1.00;;;;;;;20.27;52.88;95751.38;4964028;28;20275;-83
2021/12/02 05:01:26;;;;;;;1.00;1.00;;;;;;;20.17;52.92;95743.66;4953918;28;20246;-83
2021/12/02 05:03:53;;;;;;;1.63;1.00;;;;;;;19.74;53.08;95669.41;4949372;28;20270;-83
2021/12/02 05:06:20;;;;;;;1.20;1.10;;;;;;;19.98;53.00;95712.03;4953085;28;20251;-82
2021/12/02 05:08:46;;;;;;;1.07;1.07;;;;;;;19.95;52.89;95714.56;4973133;28;20267;-83
2021/12/02 05:11:13;;;;;;;0.90;0.90;;;;;;;20.26;52.96;95759.88;4970989;28;20297;-83
2021/12/02 05:13:39;;;;;;;1.00;1.00;;;;;;;20.16;52.92;95745.34;4955382;28;20232;-83
2021/12/02 05:16:06;;;;;;;1.00;1.00;;;;;;;20.21;52.85;95751.34;4971320;28;20658;-83
2021/12/02 05:18:33;;;;;;;1.20;1.00;;;;;;;20.06;52.71;95725.69;4973004;28;20208;-84
2021/12/02 05:21:00;;;;;;;1.00;1.00;;;;;;;19.90;53.32;95706.06;4955328;28;20384;-83
2021/12/02 05:23:26;;;;;;;1.10;1.00;;;;;;;20.20;53.06;95754.75;4971802;28;20243;-83
2021/12/02 05:25:53;;;;;;;1.10;1.00;;;;;;;20.15;52.80;95745.34;4955511;28;20219;-83
2021/12/02 05:28:20;;;;;;;1.00;1.00;;;;;;;19.99;52.61;95726.50;4939697;28;20204;-83
2021/12/02 05:30:46;;;;;;;1.10;1.00;;;;;;;20.25;52.58;95770.91;4966746;28;20235;-83
2021/12/02 05:33:14;;;;;;;0.90;0.90;;;;;;;19.60;52.84;95670.16;4971122;28;20290;-83
2021/12/02 05:35:41;;;;;;;1.00;1.00;;;;;;;20.22;52.50;95777.72;4956494;28;20203;-83
2021/12/02 05:38:07;;;;;;;1.07;1.07;;;;;;;20.11;52.18;95759.75;4943395;29;20680;-83
2021/12/02 05:40:34;;;;;;;1.13;1.07;;;;;;;19.91;52.93;95738.34;4954384;28;20686;-83
2021/12/02 05:43:01;;;;;;;1.23;1.13;;;;;;;19.99;52.88;95744.38;4956335;28;20306;-83
2021/12/02 05:45:27;;;;;;;1.00;0.90;;;;;;;20.08;52.91;95751.22;4976339;28;20703;-83
2021/12/02 05:47:54;;;;;;;1.00;1.00;;;;;;;19.58;52.80;95664.19;4976514;28;20242;-83
2021/12/02 05:50:20;;;;;;;1.00;1.00;;;;;;;19.98;52.92;95727.34;4949246;28;20235;-83
2021/12/02 05:52:47;;;;;;;1.30;1.20;;;;;;;19.75;52.86;95688.94;4971301;28;20239;-83
2021/12/02 05:55:14;;;;;;;1.07;1.00;;;;;;;19.98;52.84;95729.06;4954514;28;20235;-83
2021/12/02 05:57:40;;;;;;;1.07;0.97;;;;;;;19.91;53.06;95712.84;4956094;28;20262;-83
2021/12/02 06:00:07;;;;;;;0.90;0.90;;;;;;;20.14;52.84;95748.72;4962752;28;20200;-84
2021/12/02 06:02:36;;;;;;;0.73;0.73;;;;;;;20.26;52.76;95766.66;4975398;28;20216;-84
2021/12/02 06:05:04;;;;;;;1.20;1.10;;;;;;;20.27;52.91;95770.91;4974417;28;20203;-84
2021/12/02 06:07:31;;;;;;;0.90;0.90;;;;;;;19.86;53.00;95694.13;4954136;28;20286;-85
2021/12/02 06:09:58;;;;;;;4.67;1.20;;;;;;;19.77;53.27;95694.91;4968496;28;20223;-84
2021/12/02 06:12:24;;;;;;;3.77;1.40;;;;;;;20.27;52.83;95759.03;4960278;28;20732;-84
2021/12/02 06:14:51;;;;;;;2.00;1.20;;;;;;;19.94;50.30;95711.19;4961022;28;20658;-83
2021/12/02 06:17:18;;;;;;;4.73;1.60;;;;;;;19.93;49.00;95709.47;4978644;28;20247;-84
2021/12/02 06:19:44;;;;;;;4.00;2.00;;;;;;;20.26;48.11;95770.09;4959085;28;20262;-84
2021/12/02 06:22:13;;;;;;;4.90;2.00;;;;;;;20.15;46.69;95742.78;4963644;28;20204;-84
2021/12/02 06:24:44;;;;;;;5.20;1.90;;;;;;;19.97;46.68;95712.91;4943797;28;20234;-83
2021/12/02 06:27:11;;;;;;;3.73;1.63;;;;;;;19.75;47.08;95677.91;4961360;28;20959;-84
2021/12/02 06:29:38;;;;;;;3.10;1.87;;;;;;;20.21;47.88;95763.22;4949395;28;20211;-85
2021/12/02 06:32:06;;;;;;;3.77;1.83;;;;;;;19.96;48.18;95718.84;4958219;28;20291;-85
2021/12/02 06:34:33;;;;;;;2.57;1.90;;;;;;;19.98;48.51;95731.59;4957790;28;20192;-82
2021/12/02 06:36:59;;;;;;;2.30;1.70;;;;;;;19.90;48.96;95721.34;4958191;28;20764;-82
2021/12/02 06:39:26;;;;;;;2.43;1.50;;;;;;;19.92;49.36;95725.59;4973955;28;20697;-84
2021/12/02 06:41:53;;;;;;;2.83;1.30;;;;;;;20.12;49.91;95755.47;4957308;28;20231;-84
2021/12/02 06:44:19;;;;;;;2.40;1.50;;;;;;;19.75;50.04;95694.03;4973500;28;20223;-85
2021/12/02 06:46:46;;;;;;;3.17;1.30;;;;;;;19.93;50.24;95719.66;4958789;28;20223;-84
2021/12/02 06:49:12;;;;;;;2.53;1.40;;;;;;;19.70;50.44;95682.97;4942834;28;20676;-84
2021/12/02 06:51:39;;;;;;;1.30;1.20;;;;;;;19.87;50.51;95706.03;4955551;28;20238;-84
2021/12/02 06:54:06;;;;;;;1.30;1.20;;;;;;;19.99;50.70;95729.06;4960055;28;20220;-84
2021/12/02 06:56:51;;;;;;;4.47;1.50;;;;;;;20.04;50.88;95731.66;4954116;28;20223;-83
2021/12/02 06:59:19;;;;;;;3.97;1.40;;;;;;;20.13;50.81;95734.28;4944989;29;20252;-82
2021/12/02 07:01:46;;;;;;;2.23;1.37;;;;;;;19.91;50.83;95708.63;4966954;28;20266;-83
2021/12/02 07:04:13;;;;;;;2.60;1.30;;;;;;;20.05;51.36;95746.97;4942081;28;20227;-83
2021/12/02 07:06:40;;;;;;;1.30;1.20;;;;;;;20.03;50.86;95730.78;4954146;28;20220;-83
2021/12/02 07:09:07;;;;;;;1.63;1.10;;;;;;;19.95;51.15;95723.09;4942524;28;20196;-83
2021/12/02 07:11:33;;;;;;;2.37;1.20;;;;;;;19.87;51.00;95706.03;4941867;28;20254;-81
2021/12/02 07:14:03;;;;;;;1.40;1.30;;;;;;;19.86;51.10;95701.75;4940399;28;20666;-83
2021/12/02 07:16:32;;;;;;;1.40;1.30;;;;;;;19.89;51.29;95720.50;4957999;28;20220;-83
2021/12/02 07:19:02;;;;;;;2.87;1.43;;;;;;;19.88;50.94;95720.47;4957494;28;20579;-85
2021/12/02 07:21:30;;;;;;;1.23;1.17;;;;;;;20.00;50.88;95748.59;4946667;28;20203;-84
2021/12/02 07:23:57;;;;;;;1.40;1.30;;;;;;;20.04;51.01;95747.78;4939737;28;20219;-84
2021/12/02 07:26:23;;;;;;;1.30;1.20;;;;;;;19.98;51.22;95739.25;4957902;28;20215;-83
2021/12/02 07:28:50;;;;;;;2.77;1.20;;;;;;;19.68;51.71;95701.63;4958323;28;20199;-83
2021/12/02 07:31:17;;;;;;;2.23;1.30;;;;;;;19.95;51.27;95758.78;4957011;28;20200;-84
2021/12/02 07:33:48;;;;;;;1.73;1.33;;;;;;;19.76;51.31;95730.59;4956586;28;20195;-85
2021/12/02 07:36:15;;;;;;;1.60;1.10;;;;;;;19.96;51.40;95774.94;4974938;28;20765;-86
2021/12/02 07:38:41;;;;;;;1.43;1.33;;;;;;;20.01;51.05;95780.91;4941162;28;20250;-84
2021/12/02 07:41:08;;;;;;;2.13;1.40;;;;;;;19.91;51.00;95776.59;4941785;29;20239;-85
2021/12/02 07:43:36;;;;;;;1.30;1.20;;;;;;;19.89;51.20;95768.94;4957024;28;20287;-86
2021/12/02 07:46:03;;;;;;;2.17;1.20;;;;;;;19.57;51.62;95708.34;4932132;28;20263;-86
2021/12/02 07:48:30;;;;;;;1.77;1.37;;;;;;;19.86;51.54;95756.16;4950313;28;20556;-84
2021/12/02 07:51:01;;;;;;;1.20;1.10;;;;;;;20.15;51.62;95798.88;4956852;28;20670;-85
2021/12/02 07:53:28;;;;;;;1.57;1.47;;;;;;;19.89;51.46;95757.88;4966238;28;20200;-84
2021/12/02 07:55:55;;;;;;;2.07;1.30;;;;;;;19.95;51.59;95755.34;4939095;28;20254;-84
2021/12/02 07:58:22;;;;;;;1.07;1.03;;;;;;;19.98;51.61;95763.03;4955289;28;20889;-83
2021/12/02 08:00:49;;;;;;;2.33;1.20;;;;;;;19.78;51.70;95729.75;4967144;28;20223;-83
2021/12/02 08:03:16;;;;;;;1.30;1.20;;;;;;;20.16;51.68;95793.78;4939508;28;20216;-83
2021/12/02 08:05:43;;;;;;;1.27;1.17;;;;;;;19.75;51.76;95722.06;4973293;28;20231;-82
2021/12/02 08:08:10;;;;;;;1.03;1.00;;;;;;;19.69;51.45;95714.38;4978425;28;20238;-83
2021/12/02 08:10:37;;;;;;;1.17;1.10;;;;;;;19.91;51.63;95748.53;4968338;28;20239;-84
2021/12/02 08:13:04;;;;;;;1.07;1.03;;;;;;;19.90;51.93;95751.94;4937621;29;20228;-83
2021/12/02 08:15:31;;;;;;;1.60;1.30;;;;;;;20.02;51.80;95771.56;4934571;28;20255;-83
2021/12/02 08:17:57;;;;;;;1.10;1.00;;;;;;;19.96;51.73;95760.47;4949752;29;20216;-83
2021/12/02 08:20:25;;;;;;;1.50;1.30;;;;;;;19.98;51.70;95763.03;4939998;28;20215;-83
2021/12/02 08:22:52;;;;;;;1.80;1.20;;;;;;;19.96;51.76;95759.63;4969659;28;20266;-82
2021/12/02 08:25:20;;;;;;;1.30;1.20;;;;;;;19.73;51.70;95726.31;4955396;28;20239;-83
2021/12/02 08:27:47;;;;;;;1.30;1.20;;;;;;;20.15;51.84;95812.50;4939392;28;20724;-84
2021/12/02 08:30:15;;;;;;;1.47;1.37;;;;;;;19.68;51.70;95730.53;4965543;28;20243;-84
2021/12/02 08:32:43;;;;;;;1.20;1.10;;;;;;;19.54;51.50;95704.06;4948684;28;20203;-85
2021/12/02 08:35:10;;;;;;;2.10;1.20;;;;;;;20.01;51.72;95788.53;4940402;28;20245;-82
2021/12/02 08:37:41;;;;;;;1.20;1.10;;;;;;;19.74;51.89;95734.81;4954316;28;20310;-83
2021/12/02 08:40:09;;;;;;;1.20;1.10;;;;;;;19.85;51.78;95753.59;4948902;28;20288;-83
2021/12/02 08:42:36;;;;;;;1.50;1.10;;;;;;;19.86;51.79;95765.50;4972882;28;20204;-83
2021/12/02 08:45:03;;;;;;;1.07;1.07;;;;;;;20.02;51.80;95786.88;4955721;28;20219;-85
2021/12/02 08:47:30;;;;;;;1.27;1.17;;;;;;;20.02;51.60;95786.88;4948377;28;20251;-84
2021/12/02 08:49:57;;;;;;;1.13;1.10;;;;;;;19.89;51.64;95758.72;4937697;28;20231;-83
2021/12/02 08:52:26;;;;;;;1.20;1.10;;;;;;;19.75;51.88;95739.09;4937254;28;20269;-83
2021/12/02 08:54:53;;;;;;;1.87;1.40;;;;;;;19.80;51.89;95755.25;4937004;28;20191;-83
2021/12/02 08:57:40;;;;;;;1.10;1.10;;;;;;;20.14;51.80;95800.59;4955760;28;20230;-83
2021/12/02 09:00:08;;;;;;;1.27;1.13;;;;;;;19.83;51.82;95758.69;4966038;28;20294;-84
2021/12/02 09:02:34;;;;;;;1.40;1.30;;;;;;;20.01;51.92;95790.28;4941106;28;20205;-83
2021/12/02 09:05:01;;;;;;;1.03;1.03;;;;;;;19.92;51.79;95768.94;4936656;28;20238;-83
2021/12/02 09:07:28;;;;;;;1.20;1.10;;;;;;;19.58;51.77;95710.91;4956173;28;20739;-87
2021/12/02 09:09:54;;;;;;;1.07;1.00;;;;;;;19.94;51.88;95781.72;4945981;28;20207;-88
2021/12/02 09:12:22;;;;;;;1.13;1.10;;;;;;;19.82;51.78;95759.53;4962068;28;20278;-88
2021/12/02 09:14:50;;;;;;;1.67;1.20;;;;;;;19.79;51.95;95748.44;4963078;28;20579;-87
2021/12/02 09:17:17;;;;;;;2.50;1.20;;;;;;;19.74;52.03;95734.81;4943909;28;20219;-87
2021/12/02 09:19:43;;;;;;;1.20;1.10;;;;;;;20.09;51.82;95804.78;4961291;28;20235;-87
2021/12/02 09:22:10;;;;;;;1.20;1.10;;;;;;;19.36;52.08;95681.00;4960050;28;20283;-85
2021/12/02 09:24:39;;;;;;;1.17;1.07;;;;;;;19.91;51.90;95767.25;4942735;28;20243;-87
2021/12/02 09:27:05;;;;;;;1.13;1.03;;;;;;;19.58;51.80;95715.16;4957286;28;20215;-88
2021/12/02 09:29:32;;;;;;;1.30;1.20;;;;;;;19.62;51.76;95727.94;4942413;28;20227;-83
2021/12/02 09:31:59;;;;;;;1.00;1.00;;;;;;;19.79;51.60;95748.44;4956431;28;20219;-81
2021/12/02 09:34:26;;;;;;;1.10;1.10;;;;;;;19.87;51.70;95759.56;4965273;28;20678;-83
2021/12/02 09:36:53;;;;;;;1.10;1.07;;;;;;;19.96;51.72;95785.13;4964566;28;20379;-83
2021/12/02 09:39:20;;;;;;;1.00;1.00;;;;;;;19.79;51.79;95756.09;4970187;28;20712;-84
2021/12/02 09:41:46;;;;;;;2.60;1.20;;;;;;;19.63;51.99;95727.06;4947651;28;20642;-84
2021/12/02 09:44:14;;;;;;;1.10;1.10;;;;;;;19.88;51.93;95774.88;4938511;28;20251;-84
2021/12/02 09:46:41;;;;;;;0.90;0.90;;;;;;;20.02;52.00;95797.06;4956488;28;20220;-82
2021/12/02 09:49:09;;;;;;;1.00;1.00;;;;;;;19.84;51.96;95777.38;4943404;28;20200;-84
2021/12/02 09:51:46;;;;;;;1.20;1.10;;;;;;;19.70;51.90;95750.91;4940648;28;20651;-84
2021/12/02 09:55:07;;;;;;;0.90;0.90;;;;;;;20.10;51.93;95808.19;4943863;28;20199;-83
2021/12/02 09:57:14;;;;;;;1.23;1.17;;;;;;;19.93;51.99;95770.66;4962906;28;20258;-83
2021/12/02 10:02:10;;;;;;;1.50;1.00;;;;;;;19.89;51.97;95768.94;4979321;28;20227;-83
2021/12/02 10:04:54;;;;;;;1.20;1.10;;;;;;;19.80;51.83;95747.59;4956673;28;20239;-83
2021/12/02 10:07:31;;;;;;;1.27;1.17;;;;;;;19.87;51.71;95757.03;4961111;28;20246;-82
2021/12/02 10:10:33;;;;;;;1.00;1.00;;;;;;;19.95;51.87;95775.75;4953337;28;20199;-82
2021/12/02 10:16:30;;;;;;;2.60;1.20;;;;;;;20.03;51.80;95774.13;4966549;28;20821;-84
2021/12/02 10:19:32;;;;;;;1.10;0.97;;;;;;;19.86;51.67;95742.53;4952398;28;20202;-84
2021/12/02 10:21:56;;;;;;;1.03;1.00;;;;;;;19.92;51.68;95758.75;4970153;28;20200;-84
2021/12/02 10:24:25;;;;;;;1.03;0.93;;;;;;;20.14;51.64;95790.41;4940044;28;20299;-84
2021/12/02 10:26:54;;;;;;;1.73;1.40;;;;;;;20.13;51.63;95792.94;4971810;28;20327;-83
2021/12/02 10:29:42;;;;;;;3.20;1.40;;;;;;;19.88;50.69;95743.41;4970341;28;20282;-84
2021/12/02 10:32:08;;;;;;;2.30;1.63;;;;;;;20.11;50.61;95786.94;4957883;28;20238;-83
2021/12/02 10:34:54;;;;;;;1.93;1.30;;;;;;;19.98;50.94;95754.56;4958696;28;20244;-84
2021/12/02 10:37:26;;;;;;;1.50;1.40;;;;;;;19.90;50.58;95749.41;4990741;23;20258;-79
2021/12/02 10:40:12;;;;;;;1.60;1.50;;;;;;;19.78;50.59;95723.81;4941525;28;20623;-79
2021/12/02 10:42:42;;;;;;;2.37;1.63;;;;;;;20.11;50.84;95774.19;4970508;28;20287;-80
2021/12/02 10:45:28;;;;;;;1.80;1.50;;;;;;;20.12;50.82;95770.78;4971338;28;20266;-79
2021/12/02 10:47:54;;;;;;;2.20;1.60;;;;;;;19.64;50.90;95689.72;4969889;28;20283;-79
2021/12/02 10:50:22;;;;;;;1.70;1.60;;;;;;;19.60;50.72;95672.72;4953398;28;20330;-79
2021/12/02 10:52:50;;;;;;;1.70;1.60;;;;;;;19.77;50.80;95700.00;4969789;28;20231;-79
2021/12/02 10:55:19;;;;;;;2.03;1.70;;;;;;;19.98;50.80;95728.19;4929344;28;20808;-79
2021/12/02 10:57:54;;;;;;;1.70;1.50;;;;;;;19.66;51.06;95672.75;4953856;28;20254;-79
2021/12/02 11:00:22;;;;;;;3.27;1.63;;;;;;;19.88;51.03;95716.25;4938509;28;20231;-80
2021/12/02 11:02:52;;;;;;;1.50;1.40;;;;;;;19.08;51.02;95574.63;4959589;28;20223;-78
2021/12/02 11:05:27;;;;;;;3.83;2.00;;;;;;;18.75;51.10;95520.06;4954137;28;20674;-79
2021/12/02 11:08:05;;;;;;;5.57;2.67;;;;;;;19.32;49.67;95615.59;4954403;28;20223;-79
2021/12/02 11:10:33;;;;;;;4.03;2.13;;;;;;;19.39;47.74;95626.69;4938678;28;20685;-79
2021/12/02 11:12:59;;;;;;;2.97;2.20;;;;;;;19.80;47.56;95694.06;4965896;28;20238;-79
2021/12/02 11:15:27;;;;;;;2.50;2.17;;;;;;;19.66;48.19;95670.22;4954951;28;20227;-79
2021/12/02 11:17:57;;;;;;;6.17;2.27;;;;;;;20.15;48.36;95747.88;4953710;28;20215;-78
2021/12/02 11:20:28;;;;;;;3.37;1.90;;;;;;;20.13;48.75;95747.88;4970546;28;20583;-78
2021/12/02 11:23:12;;;;;;;3.23;2.30;;;;;;;20.11;48.77;95746.13;4952851;28;20249;-78
2021/12/02 11:25:52;;;;;;;3.87;2.53;;;;;;;19.56;48.72;95648.91;4970813;28;20336;-80
2021/12/02 11:28:21;;;;;;;2.67;2.30;;;;;;;20.08;48.81;95738.47;4939004;28;20309;-80
2021/12/02 11:30:48;;;;;;;3.60;2.17;;;;;;;18.67;48.78;95493.69;4954010;28;20670;-81
2021/12/02 11:33:32;;;;;;;2.90;2.20;;;;;;;19.77;48.82;95683.84;4954778;28;20720;-81
2021/12/02 11:35:58;;;;;;;3.17;2.53;;;;;;;19.79;48.95;95682.19;4949526;28;20294;-80
2021/12/02 11:38:27;;;;;;;2.80;2.17;;;;;;;20.07;49.14;95718.91;4950791;28;20956;-81
2021/12/02 11:40:58;;;;;;;3.37;2.10;;;;;;;18.98;49.34;95544.00;4959683;28;20285;-80
2021/12/02 11:43:26;;;;;;;2.93;2.00;;;;;;;19.95;49.34;95707.78;4961600;28;20230;-81
2021/12/02 11:45:54;;;;;;;2.77;2.03;;;;;;;19.24;49.46;95586.63;4967979;28;20302;-82
2021/12/02 11:48:28;;;;;;;2.97;1.90;;;;;;;18.60;49.43;95462.28;4936321;28;20295;-81
2021/12/02 11:51:01;;;;;;;3.43;2.07;;;;;;;19.56;49.67;95630.19;4952068;28;20278;-81
2021/12/02 11:53:28;;;;;;;3.40;2.00;;;;;;;18.90;49.63;95513.41;4952744;28;20291;-81
2021/12/02 11:55:57;;;;;;;2.57;2.20;;;;;;;19.66;49.76;95639.63;4948782;28;20283;-81
2021/12/02 11:58:24;;;;;;;2.30;1.87;;;;;;;19.62;49.36;95628.56;4957446;28;20257;-80
2021/12/02 12:00:51;;;;;;;2.10;1.70;;;;;;;19.14;47.52;95551.78;4936276;28;20223;-80
2021/12/02 12:03:36;;;;;;;2.90;1.90;;;;;;;20.11;47.17;95707.88;4937663;28;20195;-79
2021/12/02 12:06:07;;;;;;;5.33;2.10;;;;;;;19.39;47.32;95584.22;4960221;28;20330;-80
2021/12/02 12:08:35;;;;;;;3.63;1.97;;;;;;;19.86;47.47;95660.97;4953270;28;20196;-80
2021/12/02 12:11:22;;;;;;;3.23;2.03;;;;;;;20.10;47.76;95696.81;4952799;28;20231;-80
2021/12/02 12:13:56;;;;;;;6.07;2.00;;;;;;;19.65;47.92;95615.84;4974716;28;20213;-80
2021/12/02 12:16:27;;;;;;;3.07;1.93;;;;;;;19.43;47.96;95567.28;4955681;28;20731;-80
2021/12/02 12:18:55;;;;;;;2.63;2.00;;;;;;;19.30;48.06;95557.88;4954838;28;20270;-79